Time;durP1;ratioP1;P1;durP2;ratioP2;P2;SDS_P1;SDS_P2;PMS_P1;PMS_P2;Temp;Humidity;BMP_temperature;BMP_pressure;BME280_temperature;BME280_humidity;BME280_pressure;Samples;Min_cycle;Max_cycle;Signal;HPM_P1;HPM_P2
2023/08/27 00:01:00;;;;;;;6.90;5.50;;;27.40;57.40;;;;;;5033398;28;20279;-71
2023/08/27 00:03:25;;;;;;;6.87;5.80;;;27.40;57.40;;;;;;5033290;28;20699;-70
2023/08/27 00:05:51;;;;;;;7.90;5.30;;;27.40;57.30;;;;;;5033387;28;20168;-71
2023/08/27 00:08:17;;;;;;;11.43;6.90;;;27.30;57.20;;;;;;5033350;28;20178;-70
2023/08/27 00:10:42;;;;;;;7.60;6.13;;;27.30;57.20;;;;;;5033513;28;20677;-71
2023/08/27 00:13:08;;;;;;;7.60;6.37;;;27.30;57.30;;;;;;5031932;28;20174;-71
2023/08/27 00:15:33;;;;;;;7.97;6.30;;;27.30;57.30;;;;;;5033131;28;20182;-70
2023/08/27 00:17:59;;;;;;;10.90;7.57;;;27.20;57.30;;;;;;5033137;28;20240;-70
2023/08/27 00:20:25;;;;;;;7.70;6.80;;;27.20;57.20;;;;;;5033021;28;20176;-71
2023/08/27 00:22:50;;;;;;;9.20;6.63;;;27.20;57.30;;;;;;5031681;28;20358;-70
2023/08/27 00:25:16;;;;;;;10.00;7.73;;;27.10;57.30;;;;;;5033041;28;20170;-71
2023/08/27 00:27:42;;;;;;;10.17;8.20;;;27.20;57.40;;;;;;5032965;28;20217;-71
2023/08/27 00:30:09;;;;;;;14.77;7.80;;;27.10;57.30;;;;;;5032896;28;20421;-70
2023/08/27 00:32:34;;;;;;;9.67;8.03;;;27.10;57.30;;;;;;5032731;28;20453;-71
2023/08/27 00:35:03;;;;;;;8.87;7.90;;;27.10;57.40;;;;;;5032844;28;20406;-71
2023/08/27 00:37:29;;;;;;;9.20;8.30;;;27.10;57.30;;;;;;5032753;28;20178;-70
2023/08/27 00:39:54;;;;;;;11.33;8.20;;;27.10;57.30;;;;;;5032715;28;20414;-71
2023/08/27 00:42:20;;;;;;;10.13;7.80;;;27.10;57.20;;;;;;5032591;28;20203;-71
2023/08/27 00:44:45;;;;;;;10.00;7.50;;;27.10;57.20;;;;;;5032862;28;20174;-70
2023/08/27 00:47:12;;;;;;;10.67;8.17;;;27.10;57.30;;;;;;5032651;28;20179;-70
2023/08/27 00:49:39;;;;;;;10.50;8.60;;;27.10;57.20;;;;;;5032836;28;20179;-70
2023/08/27 00:52:07;;;;;;;12.60;8.47;;;27.10;57.10;;;;;;5032513;28;20520;-70
2023/08/27 00:54:33;;;;;;;9.87;8.87;;;27.20;57.20;;;;;;5032749;28;20410;-71
2023/08/27 00:56:59;;;;;;;9.97;8.07;;;27.10;57.20;;;;;;5032434;28;20473;-70
2023/08/27 00:59:25;;;;;;;11.37;9.00;;;27.10;57.20;;;;;;5030918;28;20179;-70
2023/08/27 01:01:51;;;;;;;10.40;7.90;;;27.10;57.20;;;;;;5032241;28;20437;-70
2023/08/27 01:04:17;;;;;;;9.57;7.57;;;27.10;57.20;;;;;;5032377;28;20204;-71
2023/08/27 01:06:43;;;;;;;9.93;8.10;;;27.10;57.20;;;;;;5032292;28;20465;-70
2023/08/27 01:09:41;;;;;;;11.13;8.20;;;27.10;57.20;;;;;;5032548;28;20202;-70
2023/08/27 01:12:14;;;;;;;8.93;7.77;;;27.10;57.20;;;;;;5032176;28;20429;-71
2023/08/27 01:14:44;;;;;;;10.73;8.60;;;27.10;57.30;;;;;;5032463;28;20802;-70
2023/08/27 01:17:13;;;;;;;12.90;8.30;;;27.10;57.30;;;;;;5031119;28;20469;-70
2023/08/27 01:19:39;;;;;;;10.97;8.00;;;27.10;57.30;;;;;;5032103;28;20422;-71
2023/08/27 01:22:04;;;;;;;9.57;8.50;;;27.10;57.20;;;;;;5031689;28;20470;-71
2023/08/27 01:24:30;;;;;;;8.67;7.60;;;27.10;57.20;;;;;;5032060;28;20750;-71
2023/08/27 01:27:03;;;;;;;14.10;9.93;;;27.10;57.20;;;;;;5032062;28;20233;-70
2023/08/27 01:29:35;;;;;;;10.83;8.90;;;27.10;57.20;;;;;;5030706;28;20175;-70
2023/08/27 01:32:09;;;;;;;10.93;8.33;;;27.10;57.20;;;;;;5031827;28;20573;-70
2023/08/27 01:34:36;;;;;;;14.40;9.70;;;27.10;57.20;;;;;;5031976;28;20452;-70
2023/08/27 01:37:03;;;;;;;12.27;9.10;;;27.00;57.20;;;;;;5031910;28;20501;-70
2023/08/27 01:39:29;;;;;;;12.80;8.53;;;27.00;57.20;;;;;;5030664;28;20411;-70
2023/08/27 01:41:55;;;;;;;11.30;9.57;;;27.00;57.30;;;;;;5030651;28;20847;-70
2023/08/27 01:44:20;;;;;;;9.90;8.80;;;27.00;57.30;;;;;;5030584;28;20180;-71
2023/08/27 01:46:46;;;;;;;12.83;7.93;;;27.00;57.20;;;;;;5031852;28;20580;-70
2023/08/27 01:49:12;;;;;;;12.00;9.93;;;27.00;57.20;;;;;;5031828;28;20255;-70
2023/08/27 01:51:37;;;;;;;9.17;8.20;;;26.90;57.20;;;;;;5031725;28;20191;-70
2023/08/27 01:54:03;;;;;;;13.40;9.20;;;26.90;57.30;;;;;;5031785;28;20175;-70
2023/08/27 01:56:29;;;;;;;11.47;8.83;;;26.90;57.20;;;;;;5031730;28;20176;-70
2023/08/27 01:58:54;;;;;;;9.37;8.30;;;26.90;57.30;;;;;;5031712;28;20476;-71
2023/08/27 02:01:20;;;;;;;12.30;8.50;;;26.90;57.30;;;;;;5031621;28;20191;-70
2023/08/27 02:03:46;;;;;;;10.40;7.97;;;26.90;57.20;;;;;;5031606;28;20278;-70
2023/08/27 02:06:11;;;;;;;8.10;6.67;;;26.90;57.20;;;;;;5031923;28;20168;-70
2023/08/27 02:08:37;;;;;;;10.17;8.07;;;26.90;57.20;;;;;;5031619;28;20310;-71
2023/08/27 02:11:03;;;;;;;7.67;6.87;;;26.90;57.20;;;;;;5032185;28;20534;-71
2023/08/27 02:13:28;;;;;;;9.17;7.70;;;26.90;57.20;;;;;;5035568;28;20171;-70
2023/08/27 02:15:54;;;;;;;11.27;8.73;;;26.90;57.20;;;;;;5035404;28;20176;-70
2023/08/27 02:18:19;;;;;;;9.30;7.40;;;26.90;57.30;;;;;;5035410;28;20180;-70
2023/08/27 02:20:45;;;;;;;12.10;8.87;;;26.90;57.40;;;;;;5017404;28;20227;-71
2023/08/27 02:23:11;;;;;;;8.43;6.87;;;26.90;57.20;;;;;;5035268;28;20288;-70
2023/08/27 02:25:36;;;;;;;6.90;6.23;;;26.80;57.20;;;;;;5035277;28;20676;-70
2023/08/27 02:28:02;;;;;;;6.97;5.97;;;26.80;57.10;;;;;;5033966;28;20215;-71
2023/08/27 02:30:27;;;;;;;6.90;6.17;;;26.80;57.10;;;;;;5035148;28;20515;-70
2023/08/27 02:32:53;;;;;;;6.13;5.43;;;26.80;57.00;;;;;;5035154;28;20188;-70
2023/08/27 02:35:19;;;;;;;8.53;6.10;;;26.80;57.00;;;;;;5035161;28;20656;-71
2023/08/27 02:37:44;;;;;;;9.30;5.57;;;26.80;57.00;;;;;;5035122;28;20170;-71
2023/08/27 02:40:12;;;;;;;5.73;5.23;;;26.80;56.90;;;;;;5035045;28;20643;-70
2023/08/27 02:42:38;;;;;;;6.13;4.97;;;26.80;56.90;;;;;;5035089;28;20208;-70
2023/08/27 02:45:04;;;;;;;6.30;5.13;;;26.70;56.90;;;;;;5034922;28;20407;-71
2023/08/27 02:47:30;;;;;;;5.67;5.20;;;26.70;56.90;;;;;;5034882;28;20168;-70
2023/08/27 02:49:56;;;;;;;5.80;5.00;;;26.70;56.80;;;;;;5033594;28;20770;-70
2023/08/27 02:52:21;;;;;;;4.83;4.43;;;26.70;56.80;;;;;;5034695;28;20198;-70
2023/08/27 02:54:47;;;;;;;4.47;4.07;;;26.70;57.10;;;;;;5034806;28;20226;-71
2023/08/27 02:57:12;;;;;;;7.40;3.67;;;26.70;56.80;;;;;;5034975;28;20171;-71
2023/08/27 02:59:38;;;;;;;4.70;4.30;;;26.70;56.70;;;;;;5034662;28;20179;-70
2023/08/27 03:02:03;;;;;;;3.63;3.33;;;26.70;56.80;;;;;;5034505;28;20665;-70
2023/08/27 03:04:29;;;;;;;4.03;3.63;;;26.70;56.80;;;;;;5034591;28;20210;-70
2023/08/27 03:06:55;;;;;;;3.60;3.30;;;26.70;56.80;;;;;;5034514;28;20221;-71
2023/08/27 03:09:20;;;;;;;4.07;3.50;;;26.70;56.80;;;;;;5034488;28;20663;-71
2023/08/27 03:11:46;;;;;;;3.97;3.57;;;26.60;56.80;;;;;;5033099;28;20200;-70
2023/08/27 03:14:12;;;;;;;4.03;3.73;;;26.60;56.60;;;;;;5034351;28;20176;-71
2023/08/27 03:16:38;;;;;;;4.33;3.93;;;26.60;56.60;;;;;;5034347;28;20179;-70
2023/08/27 03:19:04;;;;;;;4.87;3.93;;;26.60;56.70;;;;;;5034303;28;20175;-71
2023/08/27 03:21:30;;;;;;;3.97;3.60;;;26.60;56.70;;;;;;5034190;28;20434;-70
2023/08/27 03:23:55;;;;;;;4.17;3.77;;;26.60;56.70;;;;;;5034025;28;20625;-71
2023/08/27 03:26:21;;;;;;;3.40;3.10;;;26.60;56.60;;;;;;5034157;28;20168;-70
2023/08/27 03:28:46;;;;;;;4.03;3.73;;;26.60;56.60;;;;;;5034112;28;20168;-71
2023/08/27 03:31:12;;;;;;;3.70;3.40;;;26.60;56.60;;;;;;5033779;28;20555;-70
2023/08/27 03:33:37;;;;;;;4.93;3.60;;;26.60;56.60;;;;;;5034028;28;20168;-70
2023/08/27 03:36:03;;;;;;;3.93;3.57;;;26.60;56.70;;;;;;5034052;28;20182;-70
2023/08/27 03:38:29;;;;;;;4.63;4.00;;;26.60;56.70;;;;;;5033949;28;20230;-70
2023/08/27 03:40:55;;;;;;;5.63;3.30;;;26.50;56.60;;;;;;5033874;28;20188;-71
2023/08/27 03:43:20;;;;;;;3.93;3.47;;;26.50;56.70;;;;;;5033770;28;20291;-70
2023/08/27 03:45:46;;;;;;;4.00;3.60;;;26.50;56.80;;;;;;5033754;28;20187;-71
2023/08/27 03:48:12;;;;;;;4.40;4.00;;;26.60;56.90;;;;;;5033742;28;20544;-70
2023/08/27 03:50:38;;;;;;;4.87;3.80;;;26.50;56.80;;;;;;5033648;28;20562;-70
2023/08/27 03:53:05;;;;;;;3.70;3.40;;;26.50;56.80;;;;;;5033650;28;20521;-70
2023/08/27 03:55:31;;;;;;;3.73;3.43;;;26.60;56.90;;;;;;5033614;28;20222;-70
2023/08/27 03:57:56;;;;;;;6.63;3.40;;;26.50;56.80;;;;;;5033585;28;20446;-71
2023/08/27 04:00:22;;;;;;;4.50;3.80;;;26.50;56.90;;;;;;5032386;28;20457;-70
2023/08/27 04:02:49;;;;;;;4.33;3.93;;;26.50;56.90;;;;;;5032262;28;20282;-70
2023/08/27 04:05:14;;;;;;;5.43;4.00;;;26.50;56.90;;;;;;5033440;28;20175;-70
2023/08/27 04:07:40;;;;;;;6.70;4.47;;;26.50;56.90;;;;;;5033337;28;20421;-71
2023/08/27 04:10:06;;;;;;;5.67;4.47;;;26.50;56.90;;;;;;5033382;28;20179;-71
2023/08/27 04:12:32;;;;;;;6.20;4.43;;;26.50;56.90;;;;;;5033228;28;20195;-71
2023/08/27 04:14:58;;;;;;;8.20;4.43;;;26.50;56.90;;;;;;5033433;28;20413;-71
2023/08/27 04:17:23;;;;;;;7.93;4.50;;;26.50;56.90;;;;;;5033209;28;20406;-71
2023/08/27 04:19:49;;;;;;;9.93;4.90;;;26.50;56.90;;;;;;5033175;28;20179;-70
2023/08/27 04:22:14;;;;;;;5.90;4.63;;;26.50;56.90;;;;;;5033187;28;20707;-71
2023/08/27 04:24:42;;;;;;;5.40;4.90;;;26.50;56.90;;;;;;5033105;28;20164;-71
2023/08/27 04:27:08;;;;;;;6.83;4.87;;;26.50;56.90;;;;;;5033303;28;20172;-71
2023/08/27 04:29:33;;;;;;;6.83;5.30;;;26.50;57.00;;;;;;5032951;28;20454;-70
2023/08/27 04:31:59;;;;;;;6.93;5.30;;;26.50;57.00;;;;;;5031446;28;20222;-70
2023/08/27 04:34:25;;;;;;;10.80;5.57;;;26.50;57.00;;;;;;5032638;28;20174;-71
2023/08/27 04:36:50;;;;;;;8.00;5.57;;;26.40;57.00;;;;;;5032845;28;20210;-71
2023/08/27 04:39:16;;;;;;;9.50;6.00;;;26.40;57.00;;;;;;5032801;28;20175;-71
2023/08/27 04:41:41;;;;;;;7.60;5.93;;;26.40;57.00;;;;;;5032698;28;20202;-71
2023/08/27 04:44:07;;;;;;;8.40;6.30;;;26.40;57.00;;;;;;5032660;28;20202;-71
2023/08/27 04:46:33;;;;;;;8.83;5.90;;;26.40;57.00;;;;;;5032614;28;20255;-71
2023/08/27 04:48:59;;;;;;;8.33;6.73;;;26.40;57.00;;;;;;5032650;28;20616;-71
2023/08/27 04:51:28;;;;;;;8.43;5.73;;;26.40;57.10;;;;;;5032503;28;20258;-71
2023/08/27 04:53:54;;;;;;;11.20;5.80;;;26.40;57.10;;;;;;5032553;28;20237;-70
2023/08/27 04:56:19;;;;;;;9.10;5.87;;;26.40;57.10;;;;;;5032487;28;20831;-71
2023/08/27 04:58:45;;;;;;;9.30;7.00;;;26.40;57.10;;;;;;5031360;28;20425;-71
2023/08/27 05:01:11;;;;;;;6.43;5.47;;;26.40;57.10;;;;;;5032355;28;20199;-71
2023/08/27 05:03:36;;;;;;;7.43;5.97;;;26.30;57.00;;;;;;5032348;28;20192;-71
2023/08/27 05:06:02;;;;;;;7.73;6.60;;;26.40;57.10;;;;;;5032364;28;20241;-71
2023/08/27 05:08:28;;;;;;;8.33;6.50;;;26.40;57.10;;;;;;5032303;28;20590;-71
2023/08/27 05:10:54;;;;;;;8.70;5.73;;;26.40;57.00;;;;;;5031150;28;20195;-71
2023/08/27 05:13:19;;;;;;;11.20;6.10;;;26.40;57.00;;;;;;5032242;28;20649;-71
2023/08/27 05:15:45;;;;;;;7.80;6.23;;;26.40;57.10;;;;;;5032187;28;20644;-71
2023/08/27 05:18:11;;;;;;;8.00;6.10;;;26.40;57.00;;;;;;5032152;28;20652;-70
2023/08/27 05:20:38;;;;;;;7.70;6.13;;;26.40;57.00;;;;;;5032367;28;20422;-70
2023/08/27 05:23:03;;;;;;;7.33;6.63;;;26.40;57.00;;;;;;5032048;28;20769;-71
2023/08/27 05:25:29;;;;;;;9.00;6.33;;;26.40;57.00;;;;;;5032019;28;20450;-71
2023/08/27 05:27:55;;;;;;;12.87;6.97;;;26.40;57.00;;;;;;5030728;28;20172;-71
2023/08/27 05:30:21;;;;;;;8.87;6.47;;;26.30;57.00;;;;;;5031907;28;20172;-71
2023/08/27 05:32:46;;;;;;;6.90;5.93;;;26.30;57.00;;;;;;5031912;28;20649;-70
2023/08/27 05:35:12;;;;;;;6.90;6.10;;;26.30;57.00;;;;;;5030575;28;20448;-71
2023/08/27 05:37:38;;;;;;;9.30;6.57;;;26.30;57.00;;;;;;5031944;28;20172;-70
2023/08/27 05:40:05;;;;;;;8.17;6.63;;;26.30;57.00;;;;;;5031903;28;20175;-71
2023/08/27 05:42:32;;;;;;;8.13;7.20;;;26.40;57.00;;;;;;5031947;28;20879;-71
2023/08/27 05:44:58;;;;;;;7.73;6.50;;;26.40;57.10;;;;;;5031883;28;20569;-71
2023/08/27 05:47:23;;;;;;;9.83;7.47;;;26.30;57.00;;;;;;5034922;28;20885;-70
2023/08/27 05:49:49;;;;;;;7.80;7.00;;;26.30;57.00;;;;;;5036063;28;20226;-70
2023/08/27 05:52:14;;;;;;;7.80;7.00;;;26.30;57.00;;;;;;5035856;28;20203;-71
2023/08/27 05:54:40;;;;;;;9.00;6.60;;;26.30;57.00;;;;;;5036183;28;20176;-71
2023/08/27 05:57:05;;;;;;;8.50;7.00;;;26.30;57.00;;;;;;5035854;28;20168;-71
2023/08/27 05:59:31;;;;;;;8.83;6.27;;;26.30;57.00;;;;;;5035817;28;20171;-71
2023/08/27 06:01:58;;;;;;;7.53;6.20;;;26.30;57.00;;;;;;5035847;28;20200;-71
2023/08/27 06:04:24;;;;;;;10.40;6.20;;;26.30;57.00;;;;;;5035722;28;20255;-71
2023/08/27 06:06:49;;;;;;;8.17;7.30;;;26.30;57.00;;;;;;5035647;28;20406;-71
2023/08/27 06:09:16;;;;;;;10.80;7.20;;;26.30;57.60;;;;;;5034321;28;20793;-71
2023/08/27 06:11:42;;;;;;;8.97;7.07;;;26.30;57.00;;;;;;5035466;28;20192;-71
2023/08/27 06:14:07;;;;;;;7.37;6.17;;;26.30;57.00;;;;;;5035568;28;20418;-71
2023/08/27 06:16:33;;;;;;;7.23;6.23;;;26.30;57.00;;;;;;5034219;28;20679;-71
2023/08/27 06:18:59;;;;;;;8.20;6.60;;;26.30;57.00;;;;;;5035485;28;20549;-71
2023/08/27 06:21:25;;;;;;;9.90;6.93;;;26.30;57.00;;;;;;5035383;28;20202;-71
2023/08/27 06:23:51;;;;;;;7.00;5.97;;;26.30;57.00;;;;;;5035281;28;20450;-71
2023/08/27 06:26:16;;;;;;;9.87;6.60;;;26.30;57.00;;;;;;5035316;28;20168;-71
2023/08/27 06:28:42;;;;;;;7.73;6.03;;;26.30;57.00;;;;;;5035505;28;20576;-70
2023/08/27 06:31:07;;;;;;;6.27;5.67;;;26.30;57.00;;;;;;5035050;28;20261;-71
2023/08/27 06:33:33;;;;;;;7.80;6.80;;;26.30;57.10;;;;;;5035209;28;20199;-71
2023/08/27 06:35:58;;;;;;;6.53;5.93;;;26.30;57.10;;;;;;5035121;28;20179;-71
2023/08/27 06:38:25;;;;;;;7.27;6.27;;;26.30;57.20;;;;;;5035032;28;20171;-70
2023/08/27 06:40:50;;;;;;;5.43;4.87;;;26.20;57.10;;;;;;5033657;28;20199;-70
2023/08/27 06:43:16;;;;;;;5.93;5.00;;;26.20;57.20;;;;;;5035206;28;20978;-71
2023/08/27 06:45:41;;;;;;;6.63;5.50;;;26.30;57.20;;;;;;5034945;28;20171;-71
2023/08/27 06:48:08;;;;;;;7.27;5.97;;;26.30;57.80;;;;;;5034822;28;20203;-70
2023/08/27 06:50:34;;;;;;;6.67;5.80;;;26.20;57.20;;;;;;5034782;28;20539;-71
2023/08/27 06:53:00;;;;;;;6.77;6.07;;;26.20;57.30;;;;;;5034781;28;20434;-71
2023/08/27 06:55:26;;;;;;;6.47;5.50;;;26.20;57.30;;;;;;5035028;28;20973;-70
2023/08/27 06:57:51;;;;;;;7.67;6.07;;;26.20;57.30;;;;;;5034226;28;20167;-71
2023/08/27 07:00:17;;;;;;;5.97;5.37;;;26.20;57.40;;;;;;5034641;28;20172;-71
2023/08/27 07:02:44;;;;;;;6.20;5.43;;;26.20;57.40;;;;;;5034557;28;20191;-71
2023/08/27 07:05:10;;;;;;;6.33;5.67;;;26.20;57.40;;;;;;5034616;28;20899;-71
2023/08/27 07:07:38;;;;;;;6.43;5.73;;;26.20;57.40;;;;;;5034828;28;20497;-71
2023/08/27 07:10:05;;;;;;;6.83;5.93;;;26.20;57.40;;;;;;5034501;28;20446;-71
2023/08/27 07:12:35;;;;;;;9.30;5.93;;;26.20;57.40;;;;;;5034363;28;20442;-71
2023/08/27 07:15:02;;;;;;;7.07;5.67;;;26.20;57.40;;;;;;5034363;28;20505;-71
2023/08/27 07:17:28;;;;;;;6.80;6.20;;;26.20;57.40;;;;;;5034362;28;20414;-70
2023/08/27 07:19:53;;;;;;;7.00;5.93;;;26.20;57.40;;;;;;5033000;28;20425;-70
2023/08/27 07:22:19;;;;;;;6.20;5.67;;;26.20;57.50;;;;;;5032820;28;20719;-71
2023/08/27 07:24:44;;;;;;;6.50;5.60;;;26.20;57.40;;;;;;5034251;28;20171;-69
2023/08/27 07:27:10;;;;;;;6.90;6.30;;;26.20;57.50;;;;;;5034186;28;20173;-71
2023/08/27 07:29:36;;;;;;;5.83;5.23;;;26.20;57.50;;;;;;5034170;28;20511;-70
2023/08/27 07:32:03;;;;;;;6.80;5.33;;;26.10;57.40;;;;;;5033915;28;20294;-71
2023/08/27 07:34:30;;;;;;;7.10;6.40;;;26.10;57.50;;;;;;5034015;28;20178;-70
2023/08/27 07:36:55;;;;;;;5.40;4.90;;;26.20;57.60;;;;;;5033987;28;20958;-70
2023/08/27 07:39:22;;;;;;;5.60;5.10;;;26.10;57.50;;;;;;5033954;28;20430;-70
2023/08/27 07:41:47;;;;;;;5.10;4.60;;;26.10;57.50;;;;;;5033888;28;20985;-70
2023/08/27 07:44:13;;;;;;;5.00;4.30;;;26.10;57.50;;;;;;5033804;28;20500;-71
2023/08/27 07:46:39;;;;;;;5.13;3.90;;;26.10;57.50;;;;;;5033795;28;20230;-71
2023/08/27 07:49:05;;;;;;;4.60;3.97;;;26.10;57.60;;;;;;5033762;28;20164;-71
2023/08/27 07:51:31;;;;;;;4.27;3.70;;;26.10;57.50;;;;;;5033591;28;20179;-71
2023/08/27 07:53:56;;;;;;;6.10;4.50;;;26.10;57.60;;;;;;5033757;28;20854;-71
2023/08/27 07:56:23;;;;;;;4.53;4.13;;;26.10;57.60;;;;;;5033928;28;20222;-71
2023/08/27 07:58:49;;;;;;;7.77;4.90;;;26.10;57.70;;;;;;5033574;28;20198;-71
2023/08/27 08:01:15;;;;;;;7.43;5.23;;;26.00;57.60;;;;;;5033449;28;20442;-70
2023/08/27 08:03:41;;;;;;;6.77;5.00;;;26.00;57.70;;;;;;5033446;28;20196;-70
2023/08/27 08:06:07;;;;;;;5.87;4.63;;;26.00;57.70;;;;;;5033446;28;20164;-71
2023/08/27 08:08:34;;;;;;;4.90;4.40;;;26.00;57.70;;;;;;5032880;28;20425;-71
2023/08/27 08:10:59;;;;;;;5.43;4.70;;;26.00;57.70;;;;;;5033250;28;20584;-72
2023/08/27 08:13:25;;;;;;;4.50;4.10;;;26.00;57.70;;;;;;5033352;28;20407;-71
2023/08/27 08:15:51;;;;;;;6.33;4.87;;;26.00;57.70;;;;;;5033199;28;20233;-70
2023/08/27 08:18:17;;;;;;;5.70;4.33;;;26.00;57.60;;;;;;5033287;28;20175;-71
2023/08/27 08:20:43;;;;;;;7.60;4.97;;;26.00;57.70;;;;;;5033122;28;20233;-70
2023/08/27 08:23:08;;;;;;;4.90;4.40;;;26.00;57.70;;;;;;5032695;28;20677;-71
2023/08/27 08:25:35;;;;;;;4.77;4.37;;;26.00;57.60;;;;;;5032987;28;20407;-71
2023/08/27 08:28:01;;;;;;;4.83;4.33;;;26.00;57.70;;;;;;5032863;28;20179;-71
2023/08/27 08:30:26;;;;;;;4.23;3.83;;;26.00;57.70;;;;;;5031363;28;20441;-70
2023/08/27 08:32:52;;;;;;;5.70;3.97;;;26.00;57.60;;;;;;5032853;28;20558;-71
2023/08/27 08:35:18;;;;;;;5.40;4.20;;;26.00;57.60;;;;;;5032964;28;20626;-70
2023/08/27 08:37:44;;;;;;;5.07;4.20;;;26.00;57.60;;;;;;5034304;28;20174;-71
2023/08/27 08:40:11;;;;;;;4.90;3.53;;;26.00;57.60;;;;;;5031174;28;20179;-71
2023/08/27 08:42:47;;;;;;;5.53;4.10;;;26.00;57.60;;;;;;5034223;28;20824;-71
2023/08/27 08:45:17;;;;;;;5.57;4.67;;;26.00;57.70;;;;;;5032671;28;20403;-71
2023/08/27 08:47:44;;;;;;;7.23;4.23;;;26.00;57.70;;;;;;5033185;28;20490;-70
2023/08/27 08:50:12;;;;;;;5.63;3.90;;;26.00;57.80;;;;;;5032084;28;20402;-71
2023/08/27 08:52:42;;;;;;;4.80;4.23;;;26.00;57.80;;;;;;5031892;28;20431;-70
2023/08/27 08:55:10;;;;;;;6.83;4.03;;;26.00;57.80;;;;;;5032633;28;20411;-71
2023/08/27 08:57:40;;;;;;;6.07;5.30;;;26.00;57.80;;;;;;5032802;28;20457;-71
2023/08/27 09:00:08;;;;;;;6.63;4.03;;;26.00;57.80;;;;;;5032779;28;20414;-70
2023/08/27 09:02:35;;;;;;;4.23;3.83;;;26.00;57.80;;;;;;5032787;28;20453;-71
2023/08/27 09:05:01;;;;;;;4.03;3.60;;;26.00;57.80;;;;;;5032996;28;20501;-70
2023/08/27 09:07:28;;;;;;;4.17;3.77;;;26.00;57.70;;;;;;5032857;28;20923;-71
2023/08/27 09:09:55;;;;;;;4.87;3.43;;;26.00;57.70;;;;;;5032517;28;20438;-70
2023/08/27 09:12:22;;;;;;;5.60;3.60;;;26.00;57.70;;;;;;5032880;28;20445;-71
2023/08/27 09:14:47;;;;;;;4.83;3.77;;;26.10;57.70;;;;;;5032372;28;20425;-71
2023/08/27 09:17:16;;;;;;;6.40;3.53;;;26.00;57.60;;;;;;5032514;28;20896;-71
2023/08/27 09:19:43;;;;;;;4.10;3.70;;;26.10;57.70;;;;;;5031220;28;20422;-71
2023/08/27 09:22:09;;;;;;;5.40;3.80;;;26.10;57.70;;;;;;5032750;28;20450;-70
2023/08/27 09:24:36;;;;;;;7.30;3.77;;;26.10;57.70;;;;;;5032229;28;20938;-70
2023/08/27 09:27:01;;;;;;;4.60;3.80;;;26.10;57.70;;;;;;5032089;28;20839;-71
2023/08/27 09:29:28;;;;;;;5.77;3.07;;;26.10;57.60;;;;;;5031407;28;20484;-71
2023/08/27 09:31:56;;;;;;;7.13;3.50;;;26.10;57.60;;;;;;5031823;28;20211;-71
2023/08/27 09:34:22;;;;;;;4.47;3.40;;;26.10;57.60;;;;;;5032097;28;20438;-71
2023/08/27 09:36:47;;;;;;;4.27;3.73;;;26.10;57.60;;;;;;5032093;28;20488;-71
2023/08/27 09:39:13;;;;;;;4.00;3.37;;;26.10;57.60;;;;;;5031924;28;20168;-71
2023/08/27 09:41:46;;;;;;;3.70;3.40;;;26.10;57.70;;;;;;5031386;28;20199;-71
2023/08/27 09:44:13;;;;;;;4.57;4.07;;;26.10;57.70;;;;;;5031737;28;20753;-69
2023/08/27 09:46:42;;;;;;;4.07;3.57;;;26.00;57.60;;;;;;5031927;28;20415;-71
2023/08/27 09:49:08;;;;;;;5.50;3.80;;;26.00;57.60;;;;;;5031875;28;20445;-71
2023/08/27 09:51:36;;;;;;;6.03;3.37;;;26.00;57.60;;;;;;5032104;28;20430;-71
2023/08/27 09:54:27;;;;;;;4.67;2.87;;;26.00;57.60;;;;;;5032072;28;20434;-71
2023/08/27 09:56:59;;;;;;;5.50;3.63;;;26.10;57.70;;;;;;5031659;28;20403;-71
2023/08/27 09:59:25;;;;;;;5.10;3.40;;;26.10;57.70;;;;;;5031841;28;20809;-70
2023/08/27 10:01:52;;;;;;;5.50;3.80;;;26.10;57.70;;;;;;5030008;28;20811;-71
2023/08/27 10:04:19;;;;;;;3.33;3.00;;;26.10;57.70;;;;;;5030445;28;20529;-72
2023/08/27 10:06:45;;;;;;;3.73;3.30;;;26.10;57.80;;;;;;5030445;28;20418;-72
2023/08/27 10:09:11;;;;;;;5.10;3.70;;;26.10;57.80;;;;;;5030442;28;20406;-71
2023/08/27 10:11:38;;;;;;;4.67;3.33;;;26.10;57.90;;;;;;5030246;28;20426;-71
2023/08/27 10:14:04;;;;;;;5.90;4.33;;;26.10;57.90;;;;;;5030185;28;20168;-71
2023/08/27 10:16:31;;;;;;;4.40;3.80;;;26.10;57.80;;;;;;5026625;28;20411;-71
2023/08/27 10:18:57;;;;;;;3.50;3.20;;;26.10;57.80;;;;;;5030304;28;20505;-70
2023/08/27 10:21:23;;;;;;;4.87;3.27;;;26.10;57.80;;;;;;5030599;28;20485;-70
2023/08/27 10:23:49;;;;;;;4.17;3.40;;;26.10;57.80;;;;;;5030041;28;20454;-70
2023/08/27 10:26:15;;;;;;;8.60;3.70;;;26.10;57.80;;;;;;5030144;28;20168;-71
2023/08/27 10:28:41;;;;;;;5.83;4.10;;;26.10;57.80;;;;;;5030350;28;20418;-70
2023/08/27 10:31:07;;;;;;;5.47;3.30;;;26.10;57.80;;;;;;5030913;28;20208;-72
2023/08/27 10:33:33;;;;;;;3.50;3.20;;;26.10;57.80;;;;;;5034020;28;20473;-71
2023/08/27 10:36:06;;;;;;;3.13;2.83;;;26.10;57.80;;;;;;5035421;28;20817;-71
2023/08/27 10:38:36;;;;;;;4.80;3.07;;;26.10;57.70;;;;;;5033500;28;20417;-70
2023/08/27 10:41:03;;;;;;;4.27;3.50;;;26.10;57.80;;;;;;5034968;28;20441;-71
2023/08/27 10:43:33;;;;;;;3.70;3.00;;;26.10;58.40;;;;;;5033649;28;20462;-70
2023/08/27 10:46:16;;;;;;;3.50;3.20;;;26.10;57.80;;;;;;5034885;28;20420;-71
2023/08/27 10:48:48;;;;;;;4.60;3.13;;;26.10;57.80;;;;;;5035006;28;20395;-71
2023/08/27 10:51:15;;;;;;;4.07;3.73;;;26.10;57.90;;;;;;5034843;28;20781;-71
2023/08/27 10:53:55;;;;;;;3.73;3.00;;;26.00;58.00;;;;;;5034855;28;20484;-71
2023/08/27 10:56:37;;;;;;;3.23;2.93;;;26.10;58.00;;;;;;5034750;28;20417;-71
2023/08/27 10:59:10;;;;;;;5.57;3.60;;;26.10;57.90;;;;;;5034693;28;20414;-70
2023/08/27 11:01:56;;;;;;;3.73;3.40;;;26.10;58.00;;;;;;5034706;28;20434;-71
2023/08/27 11:04:34;;;;;;;3.53;3.03;;;26.10;58.00;;;;;;5034301;28;20823;-71
2023/08/27 11:07:08;;;;;;;3.60;3.30;;;26.10;58.00;;;;;;5034520;28;20406;-70
2023/08/27 11:09:45;;;;;;;3.43;3.13;;;26.10;58.00;;;;;;5034524;28;20389;-70
2023/08/27 11:12:22;;;;;;;3.43;3.13;;;26.10;58.00;;;;;;5034388;28;20806;-70
2023/08/27 11:14:48;;;;;;;6.33;3.57;;;26.10;58.00;;;;;;5034414;28;20776;-71
2023/08/27 11:17:22;;;;;;;3.57;2.80;;;26.10;58.00;;;;;;5034051;28;20402;-71
2023/08/27 11:19:48;;;;;;;2.60;2.40;;;26.10;57.90;;;;;;5032918;28;20469;-70
2023/08/27 11:22:18;;;;;;;7.77;3.00;;;26.10;57.80;;;;;;5033740;28;20422;-71
2023/08/27 11:24:50;;;;;;;5.10;2.80;;;26.10;57.80;;;;;;5033693;28;20176;-71
2023/08/27 11:27:17;;;;;;;3.03;2.73;;;26.10;57.80;;;;;;5034496;28;20401;-71
2023/08/27 11:29:46;;;;;;;4.13;2.90;;;26.10;57.70;;;;;;5033159;28;20457;-71
2023/08/27 11:32:13;;;;;;;3.17;2.73;;;26.10;57.70;;;;;;5033854;28;20512;-71
2023/08/27 11:34:41;;;;;;;7.53;2.70;;;26.10;57.70;;;;;;5034276;28;20542;-71
2023/08/27 11:37:07;;;;;;;4.13;3.23;;;26.10;57.70;;;;;;5033360;28;20426;-70
2023/08/27 11:39:35;;;;;;;5.77;3.50;;;26.10;57.70;;;;;;5033206;28;20410;-74
2023/08/27 11:42:01;;;;;;;5.30;3.50;;;26.10;57.60;;;;;;5033770;28;20461;-72
2023/08/27 11:44:26;;;;;;;5.53;3.20;;;26.10;57.50;;;;;;5033618;28;20466;-72
2023/08/27 11:46:52;;;;;;;5.80;3.10;;;26.10;57.50;;;;;;5031251;28;20426;-72
2023/08/27 11:49:28;;;;;;;3.40;2.53;;;26.10;57.40;;;;;;5032265;28;20187;-72
2023/08/27 11:51:58;;;;;;;2.87;2.60;;;26.10;57.40;;;;;;5031632;28;20438;-72
2023/08/27 11:54:30;;;;;;;4.77;2.53;;;26.10;57.40;;;;;;5033342;28;20468;-72
2023/08/27 11:56:56;;;;;;;7.30;3.30;;;26.10;57.40;;;;;;5031110;28;20402;-73
2023/08/27 11:59:26;;;;;;;3.40;3.10;;;26.10;57.40;;;;;;5033096;28;20418;-71
2023/08/27 12:01:53;;;;;;;3.10;2.80;;;26.10;57.40;;;;;;5031902;28;20436;-72
2023/08/27 12:04:20;;;;;;;4.70;2.77;;;26.10;57.40;;;;;;5031953;28;20462;-73
2023/08/27 12:06:59;;;;;;;3.10;2.80;;;26.10;57.40;;;;;;5033364;28;20457;-72
2023/08/27 12:09:28;;;;;;;5.77;2.57;;;26.10;57.40;;;;;;5031917;28;20438;-72
2023/08/27 12:11:57;;;;;;;3.87;2.50;;;26.10;57.40;;;;;;5032777;28;20426;-72
2023/08/27 12:14:25;;;;;;;3.53;2.47;;;26.10;57.40;;;;;;5032956;28;20476;-72
2023/08/27 12:16:52;;;;;;;3.20;2.80;;;26.10;57.40;;;;;;5033048;28;20419;-72
2023/08/27 12:19:22;;;;;;;4.50;2.90;;;26.10;57.40;;;;;;5033370;28;20776;-71
2023/08/27 12:21:51;;;;;;;3.20;2.50;;;26.10;57.40;;;;;;5032750;28;20430;-73
2023/08/27 12:24:36;;;;;;;3.00;2.40;;;26.10;57.40;;;;;;5032852;28;20450;-72
2023/08/27 12:27:04;;;;;;;2.43;2.07;;;26.10;57.30;;;;;;5033251;28;20398;-70
2023/08/27 12:29:41;;;;;;;5.53;2.30;;;26.10;57.20;;;;;;5032654;28;20504;-72
2023/08/27 12:32:16;;;;;;;2.63;2.43;;;26.10;57.10;;;;;;5055946;28;20473;-72
2023/08/27 12:34:52;;;;;;;3.23;2.83;;;26.10;57.10;;;;;;5030908;28;20422;-72
2023/08/27 12:37:19;;;;;;;3.83;2.40;;;26.10;57.10;;;;;;5029726;28;20438;-72
2023/08/27 12:39:46;;;;;;;2.93;2.63;;;26.10;57.10;;;;;;5032402;28;20993;-72
2023/08/27 12:42:14;;;;;;;3.40;2.30;;;26.10;57.00;;;;;;5032637;28;20791;-72
2023/08/27 12:44:40;;;;;;;4.27;3.17;;;26.10;57.00;;;;;;5032393;28;20415;-72